createdAt,value
2022-11-26T00:00:32.769Z,6.40
2022-11-26T00:03:00.994Z,6.40
2022-11-26T00:05:32.729Z,6.40
2022-11-26T00:08:02.044Z,6.40
2022-11-26T00:10:36.667Z,6.40
2022-11-26T00:13:15.252Z,6.40
2022-11-26T00:15:45.194Z,6.40
2022-11-26T00:18:14.950Z,6.30
2022-11-26T00:20:43.671Z,6.20
2022-11-26T00:23:20.216Z,6.10
2022-11-26T00:25:50.973Z,6.10
2022-11-26T00:28:30.416Z,6.10
2022-11-26T00:31:01.599Z,6.10
2022-11-26T00:33:30.580Z,6.00
2022-11-26T00:36:02.329Z,6.00
2022-11-26T00:38:31.614Z,6.00
2022-11-26T00:41:00.384Z,5.90
2022-11-26T00:43:28.562Z,5.80
2022-11-26T00:45:56.785Z,5.80
2022-11-26T00:48:26.271Z,5.70
2022-11-26T00:50:54.546Z,5.70
2022-11-26T00:53:26.798Z,5.60
2022-11-26T00:55:54.870Z,5.60
2022-11-26T00:58:25.963Z,5.60
2022-11-26T01:00:56.045Z,5.50
2022-11-26T01:03:26.101Z,5.50
2022-11-26T01:05:56.235Z,5.50
2022-11-26T01:08:33.907Z,5.40
2022-11-26T01:11:03.946Z,5.40
2022-11-26T01:13:32.557Z,5.40
2022-11-26T01:16:03.612Z,5.40
2022-11-26T01:18:36.098Z,5.40
2022-11-26T01:21:04.185Z,5.40
2022-11-26T01:23:32.321Z,5.40
2022-11-26T01:26:03.682Z,5.40
2022-11-26T01:28:34.480Z,5.40
2022-11-26T01:31:02.616Z,5.40
2022-11-26T01:33:31.970Z,5.40
2022-11-26T01:36:00.101Z,5.30
2022-11-26T01:38:28.171Z,5.30
2022-11-26T01:41:10.231Z,5.20
2022-11-26T01:43:42.226Z,5.20
2022-11-26T01:46:16.085Z,5.20
2022-11-26T01:48:46.016Z,5.20
2022-11-26T01:51:15.519Z,5.10
2022-11-26T01:53:48.288Z,5.10
2022-11-26T01:56:28.405Z,5.10
2022-11-26T01:59:00.844Z,5.10
2022-11-26T02:01:29.288Z,5.20
2022-11-26T02:04:08.922Z,5.00
2022-11-26T02:06:37.312Z,5.00
2022-11-26T02:09:08.309Z,5.00
2022-11-26T02:11:36.859Z,5.00
2022-11-26T02:14:09.956Z,5.00
2022-11-26T02:17:23.131Z,5.10
2022-11-26T02:20:28.188Z,5.00
2022-11-26T02:23:17.071Z,5.10
2022-11-26T02:26:14.975Z,5.10
2022-11-26T02:28:59.565Z,5.20
2022-11-26T02:31:35.046Z,5.20
2022-11-26T02:34:09.725Z,5.20
2022-11-26T02:36:43.403Z,5.30
2022-11-26T02:39:13.224Z,5.30
2022-11-26T02:41:45.801Z,5.30
2022-11-26T02:44:15.755Z,5.30
2022-11-26T02:46:46.797Z,5.30
2022-11-26T02:49:21.172Z,5.60
2022-11-26T02:51:54.108Z,5.40
2022-11-26T02:54:23.329Z,5.40
2022-11-26T02:56:52.690Z,5.40
2022-11-26T02:59:21.342Z,5.40
2022-11-26T03:01:56.210Z,5.40
2022-11-26T03:04:28.629Z,5.50
2022-11-26T03:07:01.634Z,5.30
2022-11-26T03:09:40.091Z,5.30
2022-11-26T03:12:08.880Z,5.30
2022-11-26T03:14:37.268Z,5.30
2022-11-26T03:17:06.850Z,5.30
2022-11-26T03:19:34.928Z,5.30
2022-11-26T03:22:03.008Z,5.30
2022-11-26T03:24:31.542Z,5.30
2022-11-26T03:27:00.001Z,5.30
2022-11-26T03:29:28.308Z,5.30
2022-11-26T03:31:56.594Z,5.30
2022-11-26T03:34:26.367Z,5.30
2022-11-26T03:36:54.680Z,5.20
2022-11-26T03:39:22.815Z,5.20
2022-11-26T03:41:51.048Z,5.20
2022-11-26T03:44:19.080Z,5.10
2022-11-26T03:46:47.164Z,5.10
2022-11-26T03:49:15.230Z,5.10
2022-11-26T03:51:44.670Z,5.10
2022-11-26T03:54:12.750Z,5.10
2022-11-26T03:56:40.914Z,5.10
2022-11-26T03:59:09.108Z,5.10
2022-11-26T04:01:37.231Z,5.20
2022-11-26T04:04:05.672Z,5.20
2022-11-26T04:06:33.756Z,5.20
2022-11-26T04:09:03.567Z,5.20
2022-11-26T04:11:31.661Z,5.30
2022-11-26T04:13:59.713Z,5.30
2022-11-26T04:16:27.931Z,5.30
2022-11-26T04:18:56.040Z,5.30
2022-11-26T04:21:24.101Z,5.30
2022-11-26T04:23:52.168Z,5.40
2022-11-26T04:26:21.592Z,5.40
2022-11-26T04:28:50.580Z,5.40
2022-11-26T04:31:19.059Z,5.40
2022-11-26T04:33:47.160Z,5.50
2022-11-26T04:36:15.410Z,5.50
2022-11-26T04:38:43.732Z,5.80
2022-11-26T04:41:11.959Z,5.50
2022-11-26T04:43:41.545Z,5.50
2022-11-26T04:46:09.743Z,5.80
2022-11-26T04:48:37.975Z,5.60
2022-11-26T04:51:06.403Z,6.30
2022-11-26T04:53:34.610Z,5.60
2022-11-26T04:56:02.822Z,5.70
2022-11-26T04:58:31.083Z,5.70
2022-11-26T05:01:00.655Z,5.70
2022-11-26T05:03:29.158Z,5.70
2022-11-26T05:05:57.428Z,5.70
2022-11-26T05:08:25.719Z,5.70
2022-11-26T05:10:55.105Z,5.70
2022-11-26T05:13:23.484Z,5.00
2022-11-26T05:15:52.122Z,5.80
2022-11-26T05:18:21.848Z,5.80
2022-11-26T05:20:50.069Z,6.00
2022-11-26T05:23:18.570Z,5.80
2022-11-26T05:25:47.782Z,5.80
2022-11-26T05:28:16.087Z,5.80
2022-11-26T05:30:44.390Z,6.20
2022-11-26T05:33:12.725Z,5.90
2022-11-26T05:35:42.356Z,5.80
2022-11-26T05:38:10.936Z,5.90
2022-11-26T05:40:39.128Z,6.20
2022-11-26T05:43:07.292Z,5.90
2022-11-26T05:45:35.722Z,6.10
2022-11-26T05:48:04.062Z,5.80
2022-11-26T05:50:33.200Z,6.30
2022-11-26T05:53:02.784Z,6.00
2022-11-26T05:55:31.128Z,6.20
2022-11-26T05:57:59.639Z,6.00
2022-11-26T06:00:27.936Z,6.00
2022-11-26T06:02:56.263Z,6.10
2022-11-26T06:05:24.606Z,6.10
2022-11-26T06:07:52.878Z,6.10
2022-11-26T06:10:22.751Z,6.10
2022-11-26T06:12:50.935Z,6.10
2022-11-26T06:15:19.419Z,6.10
2022-11-26T06:17:47.644Z,6.10
2022-11-26T06:20:16.315Z,6.10
2022-11-26T06:22:45.180Z,6.20
2022-11-26T06:25:15.667Z,6.20
2022-11-26T06:27:45.264Z,6.20
2022-11-26T06:30:14.532Z,6.40
2022-11-26T06:32:43.044Z,6.10
2022-11-26T06:35:11.778Z,6.10
2022-11-26T06:37:41.008Z,6.20
2022-11-26T06:40:11.824Z,6.20
2022-11-26T06:42:40.078Z,6.20
2022-11-26T06:45:11.845Z,6.20
2022-11-26T06:47:40.263Z,6.20
2022-11-26T06:50:10.987Z,6.60
2022-11-26T06:52:39.283Z,6.20
2022-11-26T06:55:09.503Z,6.20
2022-11-26T06:57:38.031Z,6.30
2022-11-26T07:00:07.759Z,6.30
2022-11-26T07:02:38.632Z,6.30
2022-11-26T07:05:06.856Z,6.60
2022-11-26T07:07:38.174Z,6.40
2022-11-26T07:10:07.819Z,6.30
2022-11-26T07:12:36.120Z,6.30
2022-11-26T07:15:04.781Z,6.30
2022-11-26T07:17:33.007Z,6.30
2022-11-26T07:20:03.103Z,6.60
2022-11-26T07:22:31.307Z,6.50
2022-11-26T07:24:59.510Z,6.40
2022-11-26T07:27:27.733Z,6.40
2022-11-26T07:29:55.942Z,6.40
2022-11-26T07:32:24.191Z,6.40
2022-11-26T07:34:52.342Z,6.40
2022-11-26T07:37:21.928Z,6.40
2022-11-26T07:39:50.566Z,6.40
2022-11-26T07:42:18.855Z,6.40
2022-11-26T07:44:47.083Z,6.60
2022-11-26T07:47:15.390Z,6.50
2022-11-26T07:49:43.788Z,6.50
2022-11-26T07:52:12.241Z,6.50
2022-11-26T07:54:42.267Z,6.50
2022-11-26T07:57:12.190Z,6.50
2022-11-26T07:59:40.862Z,6.50
2022-11-26T08:02:13.921Z,6.60
2022-11-26T08:04:42.314Z,6.60
2022-11-26T08:07:11.489Z,6.80
2022-11-26T08:09:42.244Z,6.70
2022-11-26T08:12:10.654Z,6.70
2022-11-26T08:14:39.331Z,6.80
2022-11-26T08:17:07.679Z,6.80
2022-11-26T08:19:35.958Z,7.00
2022-11-26T08:22:04.362Z,7.10
2022-11-26T08:24:32.829Z,7.20
2022-11-26T08:27:02.403Z,7.30
2022-11-26T08:29:30.597Z,7.50
2022-11-26T08:31:58.905Z,7.40
2022-11-26T08:34:27.151Z,7.50
2022-11-26T08:36:56.070Z,7.50
2022-11-26T08:39:24.304Z,7.50
2022-11-26T08:41:53.144Z,7.50
2022-11-26T08:44:23.402Z,7.60
2022-11-26T08:46:51.965Z,7.60
2022-11-26T08:49:20.491Z,7.60
2022-11-26T08:51:48.692Z,7.60
2022-11-26T08:54:16.960Z,7.60
2022-11-26T08:56:45.216Z,7.70
2022-11-26T08:59:13.459Z,7.50
2022-11-26T09:01:43.287Z,7.60
2022-11-26T09:04:11.685Z,7.60
2022-11-26T09:06:40.953Z,7.60
2022-11-26T09:09:17.619Z,7.60
2022-11-26T09:11:50.097Z,7.50
2022-11-26T09:14:20.894Z,7.50
2022-11-26T09:16:50.628Z,8.10
2022-11-26T09:19:19.286Z,7.90
2022-11-26T09:21:48.244Z,7.40
2022-11-26T09:24:17.552Z,7.60
2022-11-26T09:26:46.085Z,7.50
2022-11-26T09:29:15.219Z,7.60
2022-11-26T09:32:07.383Z,7.90
2022-11-26T09:34:34.560Z,7.40
2022-11-26T09:37:02.762Z,7.30
2022-11-26T09:39:31.192Z,7.30
2022-11-26T09:42:06.617Z,7.30
2022-11-26T09:44:55.932Z,7.30
2022-11-26T09:47:27.857Z,7.20
2022-11-26T09:50:09.644Z,7.20
2022-11-26T09:52:42.564Z,7.30
2022-11-26T09:55:17.818Z,7.40
2022-11-26T09:57:52.945Z,7.50
2022-11-26T10:00:27.640Z,7.50
2022-11-26T10:02:57.407Z,7.60
2022-11-26T10:05:38.377Z,7.70
2022-11-26T10:08:20.562Z,7.90
2022-11-26T10:10:57.827Z,7.90
2022-11-26T10:13:39.593Z,8.00
2022-11-26T10:16:12.281Z,8.00
2022-11-26T10:18:47.815Z,8.10
2022-11-26T10:21:32.574Z,8.50
2022-11-26T10:24:20.599Z,8.30
2022-11-26T10:26:49.751Z,8.30
2022-11-26T10:29:24.209Z,8.60
2022-11-26T10:31:58.486Z,8.50
2022-11-26T10:34:35.925Z,8.50
2022-11-26T10:37:08.885Z,8.50
2022-11-26T10:39:36.987Z,8.50
2022-11-26T10:42:10.394Z,8.60
2022-11-26T10:44:41.220Z,8.70
2022-11-26T10:47:25.868Z,8.80
2022-11-26T10:49:55.443Z,8.70
2022-11-26T10:52:27.859Z,8.90
2022-11-26T10:55:22.109Z,8.90
2022-11-26T10:57:54.262Z,9.10
2022-11-26T11:00:32.482Z,9.10
2022-11-26T11:03:01.335Z,9.20
2022-11-26T11:05:30.222Z,9.20
2022-11-26T11:07:59.726Z,9.40
2022-11-26T11:10:28.014Z,9.40
2022-11-26T11:13:04.914Z,9.50
2022-11-26T11:15:35.421Z,9.70
2022-11-26T11:18:07.386Z,9.80
2022-11-26T11:20:38.040Z,9.80
2022-11-26T11:23:20.146Z,9.80
2022-11-26T11:25:59.172Z,10.10
2022-11-26T11:28:29.981Z,9.60
2022-11-26T11:31:02.824Z,9.40
2022-11-26T11:33:31.575Z,9.30
2022-11-26T11:36:02.513Z,9.30
2022-11-26T11:38:34.144Z,9.40
2022-11-26T11:41:05.712Z,9.50
2022-11-26T11:43:37.776Z,9.40
2022-11-26T11:46:45.434Z,9.50
2022-11-26T11:53:25.354Z,9.70
2022-11-26T11:56:21.939Z,9.90
2022-11-26T11:59:36.256Z,10.00
2022-11-26T12:03:02.847Z,9.90
2022-11-26T12:06:33.753Z,10.20
2022-11-26T12:09:46.443Z,10.10
2022-11-26T12:12:32.655Z,10.10
2022-11-26T12:15:18.654Z,9.80
2022-11-26T12:18:25.600Z,9.90
2022-11-26T12:21:12.650Z,9.80
2022-11-26T12:23:49.352Z,9.60
2022-11-26T12:26:51.872Z,9.50
2022-11-26T12:29:53.000Z,9.60
2022-11-26T12:33:09.500Z,9.40
2022-11-26T12:36:03.599Z,9.40
2022-11-26T12:38:42.520Z,9.50
2022-11-26T12:41:53.239Z,9.20
2022-11-26T12:44:36.307Z,9.20
2022-11-26T12:47:17.341Z,9.10
2022-11-26T12:49:54.984Z,9.10
2022-11-26T12:52:32.118Z,9.10
2022-11-26T12:55:16.773Z,9.00
2022-11-26T12:57:59.904Z,9.00
2022-11-26T13:00:36.052Z,8.90
2022-11-26T13:03:39.696Z,9.30
2022-11-26T13:06:38.543Z,8.80
2022-11-26T13:09:30.788Z,8.70
2022-11-26T13:12:15.180Z,9.00
2022-11-26T13:14:53.929Z,9.10
2022-11-26T13:17:30.377Z,8.90
2022-11-26T13:20:15.733Z,9.10
2022-11-26T13:22:58.457Z,8.70
2022-11-26T13:25:49.441Z,8.60
2022-11-26T13:28:27.616Z,8.50
2022-11-26T13:31:12.273Z,8.50
2022-11-26T13:33:59.232Z,8.60
2022-11-26T13:36:58.549Z,8.60
2022-11-26T13:39:54.011Z,8.60
2022-11-26T13:42:42.995Z,8.60
2022-11-26T13:45:51.971Z,8.70
2022-11-26T13:48:23.792Z,8.60
2022-11-26T13:50:58.307Z,8.60
2022-11-26T13:53:32.665Z,8.70
2022-11-26T13:56:03.023Z,8.70
2022-11-26T13:58:35.292Z,8.60
2022-11-26T14:01:29.006Z,8.70
2022-11-26T14:03:57.662Z,8.70
2022-11-26T14:06:28.130Z,8.60
2022-11-26T14:08:57.831Z,8.50
2022-11-26T14:11:56.961Z,8.60
2022-11-26T14:14:32.798Z,8.50
2022-11-26T14:17:21.680Z,8.50
2022-11-26T14:20:03.804Z,8.40
2022-11-26T14:22:33.791Z,8.30
2022-11-26T14:25:05.634Z,8.30
2022-11-26T14:27:35.149Z,8.20
2022-11-26T14:30:22.093Z,8.20
2022-11-26T14:33:10.096Z,8.20
2022-11-26T14:35:39.539Z,8.20
2022-11-26T14:38:22.489Z,8.20
2022-11-26T14:41:00.009Z,8.20
2022-11-26T14:43:29.973Z,8.10
2022-11-26T14:46:07.840Z,8.10
2022-11-26T14:48:42.430Z,8.00
2022-11-26T14:51:10.852Z,7.90
2022-11-26T14:53:47.655Z,7.90
2022-11-26T14:56:18.312Z,7.90
2022-11-26T14:58:48.996Z,7.90
2022-11-26T15:01:22.306Z,7.80
2022-11-26T15:03:58.286Z,7.80
2022-11-26T15:06:28.446Z,7.80
2022-11-26T15:09:15.144Z,7.70
2022-11-26T15:11:48.799Z,7.60
2022-11-26T15:14:21.733Z,7.60
2022-11-26T15:16:56.466Z,7.60
2022-11-26T15:19:25.131Z,7.50
2022-11-26T15:21:53.427Z,7.30
2022-11-26T15:24:22.916Z,7.20
2022-11-26T15:26:52.389Z,7.10
2022-11-26T15:29:36.100Z,7.00
2022-11-26T15:32:04.842Z,6.80
2022-11-26T15:34:33.822Z,6.70
2022-11-26T15:37:01.960Z,6.60
2022-11-26T15:39:32.136Z,6.50
2022-11-26T15:42:07.838Z,6.40
2022-11-26T15:44:42.340Z,6.30
2022-11-26T15:47:19.968Z,6.30
2022-11-26T15:49:51.922Z,6.30
2022-11-26T15:52:23.590Z,6.20
2022-11-26T15:55:16.014Z,6.20
2022-11-26T15:57:50.819Z,6.10
2022-11-26T16:00:24.605Z,6.20
2022-11-26T16:02:53.043Z,6.00
2022-11-26T16:05:28.838Z,5.90
2022-11-26T16:07:59.303Z,5.90
2022-11-26T16:10:31.344Z,5.80
2022-11-26T16:13:20.318Z,5.80
2022-11-26T16:15:57.576Z,5.70
2022-11-26T16:18:31.746Z,5.60
2022-11-26T16:21:05.604Z,5.60
2022-11-26T16:23:33.932Z,5.50
2022-11-26T16:26:17.720Z,5.50
2022-11-26T16:28:48.335Z,5.40
2022-11-26T16:31:18.009Z,5.30
2022-11-26T16:33:46.423Z,5.30
2022-11-26T16:36:23.451Z,5.10
2022-11-26T16:38:52.181Z,5.00
2022-11-26T16:41:21.688Z,4.80
2022-11-26T16:43:51.285Z,4.60
2022-11-26T16:46:23.219Z,4.50
2022-11-26T16:48:52.484Z,4.50
2022-11-26T16:51:20.943Z,4.40
2022-11-26T16:53:48.986Z,4.30
2022-11-26T16:56:21.073Z,4.20
2022-11-26T16:58:51.393Z,4.10
2022-11-26T17:01:19.880Z,4.00
2022-11-26T17:03:47.934Z,3.90
2022-11-26T17:06:22.699Z,3.90
2022-11-26T17:08:50.997Z,3.90
2022-11-26T17:11:19.042Z,3.80
2022-11-26T17:13:47.169Z,3.80
2022-11-26T17:16:19.273Z,3.80
2022-11-26T17:18:47.953Z,3.70
2022-11-26T17:21:16.321Z,3.70
2022-11-26T17:23:44.348Z,3.60
2022-11-26T17:26:19.919Z,3.60
2022-11-26T17:28:48.280Z,3.60
2022-11-26T17:31:18.591Z,3.50
2022-11-26T17:33:46.733Z,3.50
2022-11-26T17:36:17.522Z,3.50
2022-11-26T17:38:46.261Z,3.40
2022-11-26T17:41:15.466Z,3.30
2022-11-26T17:43:43.970Z,3.30
2022-11-26T17:46:18.111Z,3.30
2022-11-26T17:48:46.772Z,3.30
2022-11-26T17:51:15.709Z,3.30
2022-11-26T17:53:44.147Z,3.30
2022-11-26T17:56:18.049Z,3.30
2022-11-26T17:58:46.365Z,3.30
2022-11-26T18:01:15.684Z,3.30
2022-11-26T18:03:46.032Z,3.30
2022-11-26T18:06:18.119Z,3.40
2022-11-26T18:08:46.628Z,3.40
2022-11-26T18:11:16.368Z,3.30
2022-11-26T18:13:45.172Z,3.40
2022-11-26T18:16:13.397Z,3.40
2022-11-26T18:18:41.552Z,3.40
2022-11-26T18:21:12.984Z,3.50
2022-11-26T18:23:47.607Z,3.40
2022-11-26T18:26:18.120Z,3.40
2022-11-26T18:28:46.226Z,3.40
2022-11-26T18:31:14.279Z,3.40
2022-11-26T18:33:42.398Z,3.40
2022-11-26T18:36:12.106Z,3.40
2022-11-26T18:38:40.163Z,3.40
2022-11-26T18:41:08.859Z,3.40
2022-11-26T18:43:39.294Z,3.50
2022-11-26T18:46:11.359Z,3.50
2022-11-26T18:48:40.947Z,3.50
2022-11-26T18:51:11.375Z,3.50
2022-11-26T18:53:39.669Z,3.50
2022-11-26T18:56:09.483Z,3.50
2022-11-26T18:58:37.732Z,3.50
2022-11-26T19:01:13.858Z,3.40
2022-11-26T19:03:43.935Z,3.30
2022-11-26T19:06:16.474Z,3.30
2022-11-26T19:08:44.631Z,3.20
2022-11-26T19:11:17.509Z,3.10
2022-11-26T19:13:46.239Z,3.10
2022-11-26T19:16:16.870Z,3.00
2022-11-26T19:18:45.819Z,2.90
2022-11-26T19:21:20.671Z,2.80
2022-11-26T19:23:49.122Z,2.70
2022-11-26T19:26:17.653Z,2.60
2022-11-26T19:28:45.931Z,2.60
2022-11-26T19:31:16.024Z,2.50
2022-11-26T19:33:46.215Z,2.50
2022-11-26T19:36:16.694Z,2.50
2022-11-26T19:38:46.975Z,2.40
2022-11-26T19:41:15.206Z,2.30
2022-11-26T19:43:43.638Z,2.30
2022-11-26T19:46:13.444Z,2.30
2022-11-26T19:48:43.435Z,2.20
2022-11-26T19:51:12.090Z,2.10
2022-11-26T19:53:40.479Z,2.10
2022-11-26T19:56:13.469Z,2.00
2022-11-26T19:58:41.549Z,2.00
2022-11-26T20:01:12.472Z,2.00
2022-11-26T20:03:40.565Z,2.00
2022-11-26T20:06:14.266Z,2.00
2022-11-26T20:08:42.643Z,2.00
2022-11-26T20:11:12.873Z,1.90
2022-11-26T20:13:42.657Z,1.90
2022-11-26T20:16:12.681Z,1.90
2022-11-26T20:18:41.774Z,1.90
2022-11-26T20:21:12.074Z,1.90
2022-11-26T20:23:40.852Z,1.80
2022-11-26T20:26:17.408Z,1.80
2022-11-26T20:28:46.106Z,1.70
2022-11-26T20:31:19.284Z,1.70
2022-11-26T20:33:50.346Z,1.70
2022-11-26T20:36:20.954Z,1.70
2022-11-26T20:38:53.523Z,1.70
2022-11-26T20:41:23.994Z,1.70
2022-11-26T20:43:57.966Z,1.70
2022-11-26T20:46:27.621Z,1.80
2022-11-26T20:48:56.314Z,1.80
2022-11-26T20:51:24.934Z,1.80
2022-11-26T20:53:53.949Z,1.90
2022-11-26T20:56:23.583Z,1.90
2022-11-26T20:58:52.939Z,1.90
2022-11-26T21:01:22.820Z,2.00
2022-11-26T21:03:51.407Z,2.00
2022-11-26T21:06:25.927Z,2.10
2022-11-26T21:08:57.893Z,2.10
2022-11-26T21:11:27.660Z,2.20
2022-11-26T21:13:55.955Z,2.20
2022-11-26T21:16:24.110Z,2.20
2022-11-26T21:18:54.051Z,2.30
2022-11-26T21:21:22.631Z,2.30
2022-11-26T21:23:50.991Z,2.40
2022-11-26T21:26:21.385Z,2.40
2022-11-26T21:28:52.739Z,2.40
2022-11-26T21:31:22.043Z,2.40
2022-11-26T21:33:55.937Z,2.50
2022-11-26T21:36:24.643Z,2.50
2022-11-26T21:38:52.705Z,2.50
2022-11-26T21:41:21.454Z,2.60
2022-11-26T21:43:50.664Z,2.60
2022-11-26T21:46:21.282Z,2.60
2022-11-26T21:48:49.708Z,2.70
2022-11-26T21:51:19.029Z,2.70
2022-11-26T21:53:49.583Z,2.80
2022-11-26T21:56:19.468Z,2.80
2022-11-26T21:58:48.221Z,2.80
2022-11-26T22:01:20.196Z,2.80
2022-11-26T22:03:49.906Z,2.80
2022-11-26T22:06:19.482Z,2.90
2022-11-26T22:08:48.449Z,2.90
2022-11-26T22:11:17.907Z,3.00
2022-11-26T22:13:46.166Z,3.00
2022-11-26T22:16:16.426Z,3.10
2022-11-26T22:18:46.828Z,3.20
2022-11-26T22:21:16.335Z,3.20
2022-11-26T22:23:44.384Z,3.30
2022-11-26T22:26:12.990Z,3.30
2022-11-26T22:28:41.216Z,3.30
2022-11-26T22:31:11.416Z,3.30
2022-11-26T22:33:39.879Z,3.40
2022-11-26T22:36:10.177Z,3.40
2022-11-26T22:38:39.347Z,3.40
2022-11-26T22:41:09.917Z,3.40
2022-11-26T22:43:38.111Z,3.50
2022-11-26T22:46:07.051Z,3.50
2022-11-26T22:48:35.194Z,3.40
2022-11-26T22:51:03.719Z,3.50
2022-11-26T22:53:34.255Z,3.40
2022-11-26T22:56:03.889Z,3.40
2022-11-26T22:58:33.530Z,3.40
2022-11-26T23:01:04.185Z,3.40
2022-11-26T23:03:36.216Z,3.40
2022-11-26T23:06:05.898Z,3.40
2022-11-26T23:08:36.157Z,3.40
2022-11-26T23:11:16.769Z,3.40
2022-11-26T23:13:46.484Z,3.30
2022-11-26T23:16:15.623Z,3.50
2022-11-26T23:18:44.193Z,3.30
2022-11-26T23:21:15.062Z,3.30
2022-11-26T23:23:44.664Z,3.20
2022-11-26T23:26:14.579Z,3.30
2022-11-26T23:28:43.099Z,3.30
2022-11-26T23:31:15.315Z,3.20
2022-11-26T23:33:43.707Z,3.10
2022-11-26T23:36:12.357Z,3.10
2022-11-26T23:38:40.703Z,3.00
2022-11-26T23:41:10.297Z,3.00
2022-11-26T23:43:39.571Z,3.00
2022-11-26T23:46:09.483Z,3.00
2022-11-26T23:48:37.664Z,2.90
2022-11-26T23:51:08.942Z,2.90
2022-11-26T23:53:37.844Z,2.90
2022-11-26T23:56:08.759Z,2.90
2022-11-26T23:58:38.352Z,2.90
